sensor_id;sensor_type;location;lat;lon;timestamp;pressure;altitude;pressure_sealevel;temperature;humidity
76337;BME280;65157;50.082;18.178;2023-04-15T00:00:07;97955.23;;;8.16;81.41
76337;BME280;65157;50.082;18.178;2023-04-15T00:02:55;97955.01;;;8.13;81.43
76337;BME280;65157;50.082;18.178;2023-04-15T00:05:22;97950.02;;;8.11;81.17
76337;BME280;65157;50.082;18.178;2023-04-15T00:07:49;97953.30;;;8.09;81.10
76337;BME280;65157;50.082;18.178;2023-04-15T00:10:18;97957.02;;;8.05;81.08
76337;BME280;65157;50.082;18.178;2023-04-15T00:12:45;97941.52;;;7.92;81.18
76337;BME280;65157;50.082;18.178;2023-04-15T00:15:15;97955.36;;;8.00;80.96
76337;BME280;65157;50.082;18.178;2023-04-15T00:17:41;97959.29;;;7.98;80.79
76337;BME280;65157;50.082;18.178;2023-04-15T00:20:08;97965.60;;;7.95;80.82
76337;BME280;65157;50.082;18.178;2023-04-15T00:22:35;97965.54;;;7.93;81.15
76337;BME280;65157;50.082;18.178;2023-04-15T00:25:02;97964.98;;;7.90;80.96
76337;BME280;65157;50.082;18.178;2023-04-15T00:27:29;97966.34;;;7.88;81.07
76337;BME280;65157;50.082;18.178;2023-04-15T00:29:55;97958.30;;;7.84;81.35
76337;BME280;65157;50.082;18.178;2023-04-15T00:32:22;97967.98;;;7.86;81.09
76337;BME280;65157;50.082;18.178;2023-04-15T00:34:48;97972.05;;;7.79;81.00
76337;BME280;65157;50.082;18.178;2023-04-15T00:37:15;97988.80;;;7.81;81.23
76337;BME280;65157;50.082;18.178;2023-04-15T00:39:42;97992.17;;;7.78;81.45
76337;BME280;65157;50.082;18.178;2023-04-15T00:42:09;97995.23;;;7.76;81.50
76337;BME280;65157;50.082;18.178;2023-04-15T00:44:35;97996.00;;;7.75;81.57
76337;BME280;65157;50.082;18.178;2023-04-15T00:47:03;97997.80;;;7.74;81.65
76337;BME280;65157;50.082;18.178;2023-04-15T00:49:30;97993.11;;;7.73;81.50
76337;BME280;65157;50.082;18.178;2023-04-15T00:52:02;97989.19;;;7.68;81.52
76337;BME280;65157;50.082;18.178;2023-04-15T00:54:29;97997.80;;;7.71;81.70
76337;BME280;65157;50.082;18.178;2023-04-15T00:56:55;98001.85;;;7.70;81.76
76337;BME280;65157;50.082;18.178;2023-04-15T00:59:22;98003.77;;;7.68;81.60
76337;BME280;65157;50.082;18.178;2023-04-15T01:01:49;98008.66;;;7.64;81.81
76337;BME280;65157;50.082;18.178;2023-04-15T01:04:16;98007.72;;;7.62;81.61
76337;BME280;65157;50.082;18.178;2023-04-15T01:06:45;98008.34;;;7.57;81.72
76337;BME280;65157;50.082;18.178;2023-04-15T01:09:11;98008.86;;;7.50;81.73
76337;BME280;65157;50.082;18.178;2023-04-15T01:11:38;98006.82;;;7.45;81.79
76337;BME280;65157;50.082;18.178;2023-04-15T01:14:09;98008.04;;;7.42;81.77
76337;BME280;65157;50.082;18.178;2023-04-15T01:16:37;98008.61;;;7.37;81.67
76337;BME280;65157;50.082;18.178;2023-04-15T01:19:07;98005.88;;;7.32;81.61
76337;BME280;65157;50.082;18.178;2023-04-15T01:21:36;98004.86;;;7.24;81.57
76337;BME280;65157;50.082;18.178;2023-04-15T01:24:04;98005.65;;;7.19;81.58
76337;BME280;65157;50.082;18.178;2023-04-15T01:26:33;98002.18;;;7.08;81.50
76337;BME280;65157;50.082;18.178;2023-04-15T01:29:00;98019.13;;;7.05;81.39
76337;BME280;65157;50.082;18.178;2023-04-15T01:31:26;98024.75;;;6.98;81.48
76337;BME280;65157;50.082;18.178;2023-04-15T01:33:53;98024.64;;;6.93;81.55
76337;BME280;65157;50.082;18.178;2023-04-15T01:36:22;98028.18;;;6.88;81.70
76337;BME280;65157;50.082;18.178;2023-04-15T01:38:50;98027.84;;;6.88;81.80
76337;BME280;65157;50.082;18.178;2023-04-15T01:41:21;98026.46;;;6.88;81.77
76337;BME280;65157;50.082;18.178;2023-04-15T01:43:50;98033.28;;;6.88;81.82
76337;BME280;65157;50.082;18.178;2023-04-15T01:46:17;98042.33;;;6.86;81.67
76337;BME280;65157;50.082;18.178;2023-04-15T01:48:44;98047.56;;;6.83;81.63
76337;BME280;65157;50.082;18.178;2023-04-15T01:51:11;98052.11;;;6.83;81.66
76337;BME280;65157;50.082;18.178;2023-04-15T01:53:37;98050.03;;;6.82;81.39
76337;BME280;65157;50.082;18.178;2023-04-15T01:56:04;98039.85;;;6.75;81.46
76337;BME280;65157;50.082;18.178;2023-04-15T01:58:31;98049.86;;;6.78;81.43
76337;BME280;65157;50.082;18.178;2023-04-15T02:00:58;98054.57;;;6.75;81.50
76337;BME280;65157;50.082;18.178;2023-04-15T02:03:24;98055.14;;;6.74;81.41
76337;BME280;65157;50.082;18.178;2023-04-15T02:05:51;98059.86;;;6.71;81.06
76337;BME280;65157;50.082;18.178;2023-04-15T02:08:18;98065.00;;;6.66;80.97
76337;BME280;65157;50.082;18.178;2023-04-15T02:10:44;98066.62;;;6.61;80.95
76337;BME280;65157;50.082;18.178;2023-04-15T02:13:11;98066.54;;;6.59;80.88
76337;BME280;65157;50.082;18.178;2023-04-15T02:15:38;98068.73;;;6.57;80.86
76337;BME280;65157;50.082;18.178;2023-04-15T02:18:04;98069.46;;;6.53;80.76
76337;BME280;65157;50.082;18.178;2023-04-15T02:20:31;98066.11;;;6.49;80.82
76337;BME280;65157;50.082;18.178;2023-04-15T02:22:58;98064.64;;;6.47;80.73
76337;BME280;65157;50.082;18.178;2023-04-15T02:25:24;98068.96;;;6.40;80.68
76337;BME280;65157;50.082;18.178;2023-04-15T02:27:51;98072.70;;;6.35;80.76
76337;BME280;65157;50.082;18.178;2023-04-15T02:30:18;98064.11;;;6.23;80.74
76337;BME280;65157;50.082;18.178;2023-04-15T02:32:44;98080.23;;;6.27;80.74
76337;BME280;65157;50.082;18.178;2023-04-15T02:35:11;98082.55;;;6.22;80.77
76337;BME280;65157;50.082;18.178;2023-04-15T02:37:38;98085.62;;;6.20;80.94
76337;BME280;65157;50.082;18.178;2023-04-15T02:40:07;98092.84;;;6.19;80.76
76337;BME280;65157;50.082;18.178;2023-04-15T02:42:34;98099.45;;;6.20;80.87
76337;BME280;65157;50.082;18.178;2023-04-15T02:45:01;98088.61;;;6.16;80.83
76337;BME280;65157;50.082;18.178;2023-04-15T02:47:30;98101.49;;;6.21;80.84
76337;BME280;65157;50.082;18.178;2023-04-15T02:49:56;98103.95;;;6.21;80.94
76337;BME280;65157;50.082;18.178;2023-04-15T02:52:23;98104.48;;;6.21;80.87
76337;BME280;65157;50.082;18.178;2023-04-15T02:54:50;98101.54;;;6.20;80.95
76337;BME280;65157;50.082;18.178;2023-04-15T02:57:17;98102.04;;;6.17;80.85
76337;BME280;65157;50.082;18.178;2023-04-15T02:59:43;98098.90;;;6.17;80.82
76337;BME280;65157;50.082;18.178;2023-04-15T03:02:10;98104.50;;;6.17;80.64
76337;BME280;65157;50.082;18.178;2023-04-15T03:04:37;98105.35;;;6.18;80.61
76337;BME280;65157;50.082;18.178;2023-04-15T03:07:03;98104.64;;;6.18;80.51
76337;BME280;65157;50.082;18.178;2023-04-15T03:09:30;98101.39;;;6.16;80.43
76337;BME280;65157;50.082;18.178;2023-04-15T03:11:57;98100.60;;;6.14;80.34
76337;BME280;65157;50.082;18.178;2023-04-15T03:14:24;98094.02;;;6.08;80.40
76337;BME280;65157;50.082;18.178;2023-04-15T03:16:50;98102.96;;;6.12;80.43
76337;BME280;65157;50.082;18.178;2023-04-15T03:19:17;98105.77;;;6.12;80.55
76337;BME280;65157;50.082;18.178;2023-04-15T03:21:44;98109.52;;;6.10;80.50
76337;BME280;65157;50.082;18.178;2023-04-15T03:24:10;98108.09;;;6.07;80.42
76337;BME280;65157;50.082;18.178;2023-04-15T03:26:37;98108.09;;;6.02;80.31
76337;BME280;65157;50.082;18.178;2023-04-15T03:29:04;98112.66;;;5.98;80.18
76337;BME280;65157;50.082;18.178;2023-04-15T03:31:30;98114.12;;;5.93;80.20
76337;BME280;65157;50.082;18.178;2023-04-15T03:33:57;98107.34;;;5.83;80.32
76337;BME280;65157;50.082;18.178;2023-04-15T03:36:24;98117.92;;;5.85;80.23
76337;BME280;65157;50.082;18.178;2023-04-15T03:38:51;98119.20;;;5.84;80.05
76337;BME280;65157;50.082;18.178;2023-04-15T03:41:18;98120.30;;;5.82;80.18
76337;BME280;65157;50.082;18.178;2023-04-15T03:43:44;98116.88;;;5.81;80.24
76337;BME280;65157;50.082;18.178;2023-04-15T03:46:11;98119.42;;;5.83;80.25
76337;BME280;65157;50.082;18.178;2023-04-15T03:48:38;98117.34;;;5.82;80.28
76337;BME280;65157;50.082;18.178;2023-04-15T03:51:04;98125.06;;;5.81;80.32
76337;BME280;65157;50.082;18.178;2023-04-15T03:53:31;98126.45;;;5.82;80.60
76337;BME280;65157;50.082;18.178;2023-04-15T03:55:58;98130.32;;;5.81;80.47
76337;BME280;65157;50.082;18.178;2023-04-15T03:58:24;98134.95;;;5.80;80.37
76337;BME280;65157;50.082;18.178;2023-04-15T04:00:51;98143.27;;;5.77;80.11
76337;BME280;65157;50.082;18.178;2023-04-15T04:03:18;98144.48;;;5.74;80.32
76337;BME280;65157;50.082;18.178;2023-04-15T04:05:44;98147.75;;;5.70;80.37
76337;BME280;65157;50.082;18.178;2023-04-15T04:08:16;98147.99;;;5.64;80.31
76337;BME280;65157;50.082;18.178;2023-04-15T04:10:43;98155.09;;;5.66;80.44
76337;BME280;65157;50.082;18.178;2023-04-15T04:13:10;98157.59;;;5.65;80.52
76337;BME280;65157;50.082;18.178;2023-04-15T04:15:37;98146.92;;;5.60;80.64
76337;BME280;65157;50.082;18.178;2023-04-15T04:18:03;98158.05;;;5.66;80.93
76337;BME280;65157;50.082;18.178;2023-04-15T04:20:30;98153.60;;;5.64;80.87
76337;BME280;65157;50.082;18.178;2023-04-15T04:22:57;98162.45;;;5.71;81.12
76337;BME280;65157;50.082;18.178;2023-04-15T04:25:24;98164.98;;;5.73;81.10
76337;BME280;65157;50.082;18.178;2023-04-15T04:27:51;98172.06;;;5.76;81.19
76337;BME280;65157;50.082;18.178;2023-04-15T04:30:17;98172.35;;;5.77;81.33
76337;BME280;65157;50.082;18.178;2023-04-15T04:32:52;98173.98;;;5.80;81.58
76337;BME280;65157;50.082;18.178;2023-04-15T04:35:18;98177.31;;;5.84;81.60
76337;BME280;65157;50.082;18.178;2023-04-15T04:37:45;98173.52;;;5.88;81.63
76337;BME280;65157;50.082;18.178;2023-04-15T04:40:12;98171.14;;;5.90;81.81
76337;BME280;65157;50.082;18.178;2023-04-15T04:42:39;98170.48;;;5.94;81.77
76337;BME280;65157;50.082;18.178;2023-04-15T04:45:06;98175.48;;;5.95;81.88
76337;BME280;65157;50.082;18.178;2023-04-15T04:47:34;98174.15;;;5.98;82.00
76337;BME280;65157;50.082;18.178;2023-04-15T04:50:01;98181.18;;;6.01;82.16
76337;BME280;65157;50.082;18.178;2023-04-15T04:52:28;98176.50;;;6.04;82.12
76337;BME280;65157;50.082;18.178;2023-04-15T04:54:55;98178.96;;;6.08;82.15
76337;BME280;65157;50.082;18.178;2023-04-15T04:57:21;98171.25;;;6.13;82.15
76337;BME280;65157;50.082;18.178;2023-04-15T04:59:48;98170.38;;;6.17;81.97
76337;BME280;65157;50.082;18.178;2023-04-15T05:02:17;98161.15;;;6.15;82.06
76337;BME280;65157;50.082;18.178;2023-04-15T05:04:44;98159.93;;;6.23;82.05
76337;BME280;65157;50.082;18.178;2023-04-15T05:07:11;98166.58;;;6.28;82.17
76337;BME280;65157;50.082;18.178;2023-04-15T05:09:37;98163.77;;;6.24;82.01
76337;BME280;65157;50.082;18.178;2023-04-15T05:12:04;98170.52;;;6.34;82.10
76337;BME280;65157;50.082;18.178;2023-04-15T05:14:31;98171.93;;;6.38;82.26
76337;BME280;65157;50.082;18.178;2023-04-15T05:16:58;98170.17;;;6.42;82.12
76337;BME280;65157;50.082;18.178;2023-04-15T05:19:24;98170.38;;;6.46;82.04
76337;BME280;65157;50.082;18.178;2023-04-15T05:21:51;98171.22;;;6.51;82.01
76337;BME280;65157;50.082;18.178;2023-04-15T05:24:18;98172.95;;;6.55;82.02
76337;BME280;65157;50.082;18.178;2023-04-15T05:26:45;98175.84;;;6.57;81.98
76337;BME280;65157;50.082;18.178;2023-04-15T05:29:11;98181.80;;;6.61;81.95
76337;BME280;65157;50.082;18.178;2023-04-15T05:31:38;98185.91;;;6.67;82.06
76337;BME280;65157;50.082;18.178;2023-04-15T05:34:05;98191.80;;;6.73;81.93
76337;BME280;65157;50.082;18.178;2023-04-15T05:36:33;98193.55;;;6.77;81.72
76337;BME280;65157;50.082;18.178;2023-04-15T05:39:03;98194.16;;;6.83;81.45
76337;BME280;65157;50.082;18.178;2023-04-15T05:41:29;98190.33;;;6.87;81.23
76337;BME280;65157;50.082;18.178;2023-04-15T05:43:56;98193.18;;;6.90;80.81
76337;BME280;65157;50.082;18.178;2023-04-15T05:46:23;98201.11;;;6.93;81.16
76337;BME280;65157;50.082;18.178;2023-04-15T05:48:49;98203.38;;;6.96;80.86
76337;BME280;65157;50.082;18.178;2023-04-15T05:51:16;98209.27;;;7.02;80.92
76337;BME280;65157;50.082;18.178;2023-04-15T05:53:43;98209.32;;;7.09;80.83
76337;BME280;65157;50.082;18.178;2023-04-15T05:56:09;98204.48;;;7.19;81.08
76337;BME280;65157;50.082;18.178;2023-04-15T05:58:36;98206.02;;;7.31;81.03
76337;BME280;65157;50.082;18.178;2023-04-15T06:01:03;98202.63;;;7.44;81.27
76337;BME280;65157;50.082;18.178;2023-04-15T06:03:30;98191.09;;;7.50;81.34
76337;BME280;65157;50.082;18.178;2023-04-15T06:06:03;98198.48;;;7.68;81.32
76337;BME280;65157;50.082;18.178;2023-04-15T06:08:29;98199.14;;;7.84;81.18
76337;BME280;65157;50.082;18.178;2023-04-15T06:10:59;98198.27;;;8.05;81.12
76337;BME280;65157;50.082;18.178;2023-04-15T06:13:26;98205.77;;;8.28;80.76
76337;BME280;65157;50.082;18.178;2023-04-15T06:15:54;98204.83;;;8.54;80.34
76337;BME280;65157;50.082;18.178;2023-04-15T06:18:21;98205.47;;;8.79;80.03
76337;BME280;65157;50.082;18.178;2023-04-15T06:20:55;98209.55;;;9.05;79.65
76337;BME280;65157;50.082;18.178;2023-04-15T06:23:22;98209.84;;;9.26;78.24
76337;BME280;65157;50.082;18.178;2023-04-15T06:25:49;98212.30;;;9.45;78.02
76337;BME280;65157;50.082;18.178;2023-04-15T06:28:16;98211.89;;;9.66;77.90
76337;BME280;65157;50.082;18.178;2023-04-15T06:30:42;98208.98;;;9.89;77.97
76337;BME280;65157;50.082;18.178;2023-04-15T06:33:09;98207.02;;;10.09;76.64
76337;BME280;65157;50.082;18.178;2023-04-15T06:35:36;98212.05;;;10.29;76.72
76337;BME280;65157;50.082;18.178;2023-04-15T06:38:03;98208.42;;;10.46;76.25
76337;BME280;65157;50.082;18.178;2023-04-15T06:40:29;98215.84;;;10.69;75.91
76337;BME280;65157;50.082;18.178;2023-04-15T06:42:57;98216.52;;;10.93;75.72
76337;BME280;65157;50.082;18.178;2023-04-15T06:45:24;98207.09;;;11.09;74.87
76337;BME280;65157;50.082;18.178;2023-04-15T06:47:50;98211.45;;;11.30;73.59
76337;BME280;65157;50.082;18.178;2023-04-15T06:50:17;98208.10;;;11.44;73.26
76337;BME280;65157;50.082;18.178;2023-04-15T06:52:44;98206.88;;;11.58;73.50
76337;BME280;65157;50.082;18.178;2023-04-15T06:55:11;98213.73;;;11.72;71.64
76337;BME280;65157;50.082;18.178;2023-04-15T06:57:38;98213.48;;;11.79;69.99
76337;BME280;65157;50.082;18.178;2023-04-15T07:00:07;98212.90;;;11.88;69.76
76337;BME280;65157;50.082;18.178;2023-04-15T07:02:36;98209.81;;;12.01;69.31
76337;BME280;65157;50.082;18.178;2023-04-15T07:05:06;98213.63;;;12.10;68.74
76337;BME280;65157;50.082;18.178;2023-04-15T07:07:33;98213.67;;;12.15;67.76
76337;BME280;65157;50.082;18.178;2023-04-15T07:09:59;98217.23;;;12.22;67.60
76337;BME280;65157;50.082;18.178;2023-04-15T07:12:26;98218.48;;;12.33;66.90
76337;BME280;65157;50.082;18.178;2023-04-15T07:14:53;98220.67;;;12.45;67.28
76337;BME280;65157;50.082;18.178;2023-04-15T07:17:20;98219.83;;;12.58;66.06
76337;BME280;65157;50.082;18.178;2023-04-15T07:19:47;98217.56;;;12.65;64.29
76337;BME280;65157;50.082;18.178;2023-04-15T07:22:13;98223.29;;;12.70;64.39
76337;BME280;65157;50.082;18.178;2023-04-15T07:24:40;98224.11;;;12.78;64.24
76337;BME280;65157;50.082;18.178;2023-04-15T07:27:07;98225.98;;;12.85;63.12
76337;BME280;65157;50.082;18.178;2023-04-15T07:29:33;98223.83;;;12.88;63.16
76337;BME280;65157;50.082;18.178;2023-04-15T07:32:00;98221.45;;;12.89;61.78
76337;BME280;65157;50.082;18.178;2023-04-15T07:34:27;98223.85;;;12.90;62.95
76337;BME280;65157;50.082;18.178;2023-04-15T07:36:54;98227.14;;;12.99;62.78
76337;BME280;65157;50.082;18.178;2023-04-15T07:39:21;98229.88;;;13.08;62.57
76337;BME280;65157;50.082;18.178;2023-04-15T07:41:47;98232.52;;;13.17;62.80
76337;BME280;65157;50.082;18.178;2023-04-15T07:44:14;98228.38;;;13.22;62.50
76337;BME280;65157;50.082;18.178;2023-04-15T07:46:41;98235.56;;;13.36;62.07
76337;BME280;65157;50.082;18.178;2023-04-15T07:49:07;98226.42;;;13.37;60.95
76337;BME280;65157;50.082;18.178;2023-04-15T07:51:37;98230.35;;;13.50;61.33
76337;BME280;65157;50.082;18.178;2023-04-15T07:54:03;98228.02;;;13.63;61.34
76337;BME280;65157;50.082;18.178;2023-04-15T07:56:30;98230.91;;;13.79;62.22
76337;BME280;65157;50.082;18.178;2023-04-15T07:58:57;98229.21;;;14.00;62.73
76337;BME280;65157;50.082;18.178;2023-04-15T08:01:24;98229.89;;;14.20;60.07
76337;BME280;65157;50.082;18.178;2023-04-15T08:03:51;98235.92;;;14.30;59.58
76337;BME280;65157;50.082;18.178;2023-04-15T08:06:18;98234.81;;;14.45;58.61
76337;BME280;65157;50.082;18.178;2023-04-15T08:08:44;98233.41;;;14.52;58.54
76337;BME280;65157;50.082;18.178;2023-04-15T08:11:11;98231.09;;;14.61;58.27
76337;BME280;65157;50.082;18.178;2023-04-15T08:13:38;98231.65;;;14.73;58.33
76337;BME280;65157;50.082;18.178;2023-04-15T08:16:24;98231.99;;;14.82;56.86
76337;BME280;65157;50.082;18.178;2023-04-15T08:18:55;98231.38;;;14.86;55.99
76337;BME280;65157;50.082;18.178;2023-04-15T08:21:22;98234.10;;;14.87;55.74
76337;BME280;65157;50.082;18.178;2023-04-15T08:23:52;98236.83;;;14.79;54.51
76337;BME280;65157;50.082;18.178;2023-04-15T08:26:21;98240.67;;;14.52;53.82
76337;BME280;65157;50.082;18.178;2023-04-15T08:28:48;98237.71;;;14.27;54.71
76337;BME280;65157;50.082;18.178;2023-04-15T08:31:17;98240.37;;;14.08;54.14
76337;BME280;65157;50.082;18.178;2023-04-15T08:33:45;98238.90;;;13.91;55.33
76337;BME280;65157;50.082;18.178;2023-04-15T08:36:11;98243.34;;;13.84;55.29
76337;BME280;65157;50.082;18.178;2023-04-15T08:38:39;98243.46;;;13.75;56.43
76337;BME280;65157;50.082;18.178;2023-04-15T08:41:11;98249.98;;;13.68;56.50
76337;BME280;65157;50.082;18.178;2023-04-15T08:43:45;98251.17;;;13.61;56.62
76337;BME280;65157;50.082;18.178;2023-04-15T08:46:15;98255.92;;;13.54;57.20
76337;BME280;65157;50.082;18.178;2023-04-15T08:48:43;98260.13;;;13.50;57.85
76337;BME280;65157;50.082;18.178;2023-04-15T08:51:16;98260.06;;;13.46;57.69
76337;BME280;65157;50.082;18.178;2023-04-15T08:53:43;98261.76;;;13.42;57.48
76337;BME280;65157;50.082;18.178;2023-04-15T08:56:11;98265.59;;;13.35;56.44
76337;BME280;65157;50.082;18.178;2023-04-15T08:58:39;98266.90;;;13.31;56.61
76337;BME280;65157;50.082;18.178;2023-04-15T09:01:08;98266.14;;;13.35;57.09
76337;BME280;65157;50.082;18.178;2023-04-15T09:03:35;98265.16;;;13.49;56.26
76337;BME280;65157;50.082;18.178;2023-04-15T09:06:03;98264.52;;;13.55;55.74
76337;BME280;65157;50.082;18.178;2023-04-15T09:08:30;98266.42;;;13.58;55.89
76337;BME280;65157;50.082;18.178;2023-04-15T09:10:57;98262.77;;;13.70;56.11
76337;BME280;65157;50.082;18.178;2023-04-15T09:13:23;98259.55;;;13.95;56.66
76337;BME280;65157;50.082;18.178;2023-04-15T09:15:51;98259.93;;;14.22;55.47
76337;BME280;65157;50.082;18.178;2023-04-15T09:18:30;98256.27;;;14.36;55.79
76337;BME280;65157;50.082;18.178;2023-04-15T09:21:12;98259.34;;;14.32;53.53
76337;BME280;65157;50.082;18.178;2023-04-15T09:23:54;98257.09;;;14.20;53.82
76337;BME280;65157;50.082;18.178;2023-04-15T09:26:35;98256.14;;;14.12;53.80
76337;BME280;65157;50.082;18.178;2023-04-15T09:29:06;98259.02;;;14.07;54.11
76337;BME280;65157;50.082;18.178;2023-04-15T09:31:36;98257.53;;;14.01;54.91
76337;BME280;65157;50.082;18.178;2023-04-15T09:34:05;98264.87;;;14.02;54.80
76337;BME280;65157;50.082;18.178;2023-04-15T09:39:11;98270.02;;;13.88;54.84
76337;BME280;65157;50.082;18.178;2023-04-15T09:41:39;98267.02;;;13.80;54.76
76337;BME280;65157;50.082;18.178;2023-04-15T09:44:06;98272.07;;;13.82;56.32
76337;BME280;65157;50.082;18.178;2023-04-15T09:46:42;98275.05;;;13.87;55.96
76337;BME280;65157;50.082;18.178;2023-04-15T09:49:15;98272.35;;;13.87;56.03
76337;BME280;65157;50.082;18.178;2023-04-15T09:51:44;98271.52;;;13.89;55.26
76337;BME280;65157;50.082;18.178;2023-04-15T09:54:10;98268.05;;;13.90;55.02
76337;BME280;65157;50.082;18.178;2023-04-15T09:56:38;98266.84;;;13.93;54.64
76337;BME280;65157;50.082;18.178;2023-04-15T09:59:05;98261.80;;;13.93;55.21
76337;BME280;65157;50.082;18.178;2023-04-15T10:01:32;98261.90;;;13.97;55.43
76337;BME280;65157;50.082;18.178;2023-04-15T10:04:04;98263.70;;;13.99;53.58
76337;BME280;65157;50.082;18.178;2023-04-15T10:06:34;98261.05;;;14.11;53.70
76337;BME280;65157;50.082;18.178;2023-04-15T10:09:01;98251.91;;;14.22;53.82
76337;BME280;65157;50.082;18.178;2023-04-15T10:11:28;98262.46;;;14.41;54.31
76337;BME280;65157;50.082;18.178;2023-04-15T10:13:58;98262.30;;;14.48;53.78
76337;BME280;65157;50.082;18.178;2023-04-15T10:16:27;98257.83;;;14.48;53.29
76337;BME280;65157;50.082;18.178;2023-04-15T10:18:56;98260.41;;;14.54;53.20
76337;BME280;65157;50.082;18.178;2023-04-15T10:21:23;98254.10;;;14.72;53.34
76337;BME280;65157;50.082;18.178;2023-04-15T10:23:53;98255.54;;;14.90;52.20
76337;BME280;65157;50.082;18.178;2023-04-15T10:26:20;98254.55;;;15.06;51.69
76337;BME280;65157;50.082;18.178;2023-04-15T10:28:47;98252.51;;;15.16;52.67
76337;BME280;65157;50.082;18.178;2023-04-15T10:31:18;98251.52;;;15.17;50.89
76337;BME280;65157;50.082;18.178;2023-04-15T10:33:46;98249.77;;;15.12;51.23
76337;BME280;65157;50.082;18.178;2023-04-15T10:36:14;98240.83;;;15.11;51.17
76337;BME280;65157;50.082;18.178;2023-04-15T10:38:44;98250.91;;;15.37;51.28
76337;BME280;65157;50.082;18.178;2023-04-15T10:44:03;98248.56;;;15.78;49.62
76337;BME280;65157;50.082;18.178;2023-04-15T10:46:43;98242.17;;;16.09;52.04
76337;BME280;65157;50.082;18.178;2023-04-15T10:49:24;98235.23;;;16.39;49.91
76337;BME280;65157;50.082;18.178;2023-04-15T10:51:52;98237.77;;;16.65;48.70
76337;BME280;65157;50.082;18.178;2023-04-15T10:54:32;98238.05;;;16.82;47.83
76337;BME280;65157;50.082;18.178;2023-04-15T10:59:37;98233.61;;;17.01;47.59
76337;BME280;65157;50.082;18.178;2023-04-15T11:02:06;98236.36;;;17.17;47.31
76337;BME280;65157;50.082;18.178;2023-04-15T11:04:56;98233.71;;;17.25;46.40
76337;BME280;65157;50.082;18.178;2023-04-15T11:12:49;98225.63;;;17.34;47.14
76337;BME280;65157;50.082;18.178;2023-04-15T11:15:32;98219.16;;;17.24;46.66
76337;BME280;65157;50.082;18.178;2023-04-15T11:18:10;98229.45;;;17.18;46.67
76337;BME280;65157;50.082;18.178;2023-04-15T11:20:42;98228.02;;;17.21;47.38
76337;BME280;65157;50.082;18.178;2023-04-15T11:23:10;98229.15;;;17.36;47.88
76337;BME280;65157;50.082;18.178;2023-04-15T11:25:38;98224.33;;;17.53;48.47
76337;BME280;65157;50.082;18.178;2023-04-15T11:28:05;98228.08;;;17.69;46.76
76337;BME280;65157;50.082;18.178;2023-04-15T11:30:37;98223.31;;;17.73;46.66
76337;BME280;65157;50.082;18.178;2023-04-15T11:33:09;98229.84;;;17.84;47.03
76337;BME280;65157;50.082;18.178;2023-04-15T11:35:37;98234.45;;;18.02;46.44
76337;BME280;65157;50.082;18.178;2023-04-15T11:38:07;98228.88;;;18.13;45.64
76337;BME280;65157;50.082;18.178;2023-04-15T11:40:34;98231.77;;;18.26;46.81
76337;BME280;65157;50.082;18.178;2023-04-15T11:45:34;98233.68;;;18.64;45.54
76337;BME280;65157;50.082;18.178;2023-04-15T11:48:08;98236.26;;;18.75;44.75
76337;BME280;65157;50.082;18.178;2023-04-15T11:50:37;98223.86;;;18.80;43.50
76337;BME280;65157;50.082;18.178;2023-04-15T11:53:04;98231.04;;;18.78;43.43
76337;BME280;65157;50.082;18.178;2023-04-15T11:55:44;98235.80;;;18.71;43.57
76337;BME280;65157;50.082;18.178;2023-04-15T11:58:17;98233.02;;;18.74;43.65
76337;BME280;65157;50.082;18.178;2023-04-15T12:00:50;98230.55;;;18.79;43.72
76337;BME280;65157;50.082;18.178;2023-04-15T12:03:30;98234.84;;;18.81;43.68
76337;BME280;65157;50.082;18.178;2023-04-15T12:08:58;98238.08;;;18.67;42.83
76337;BME280;65157;50.082;18.178;2023-04-15T12:13:54;98236.81;;;18.92;42.89
76337;BME280;65157;50.082;18.178;2023-04-15T12:16:23;98239.92;;;18.97;42.68
76337;BME280;65157;50.082;18.178;2023-04-15T12:18:55;98242.25;;;19.01;42.55
76337;BME280;65157;50.082;18.178;2023-04-15T12:21:25;98243.39;;;19.02;43.40
76337;BME280;65157;50.082;18.178;2023-04-15T12:24:01;98241.13;;;19.00;42.38
76337;BME280;65157;50.082;18.178;2023-04-15T12:26:44;98241.94;;;18.93;42.76
76337;BME280;65157;50.082;18.178;2023-04-15T12:29:12;98239.23;;;18.87;43.20
76337;BME280;65157;50.082;18.178;2023-04-15T12:31:51;98239.80;;;18.81;42.78
76337;BME280;65157;50.082;18.178;2023-04-15T12:34:39;98240.38;;;18.85;42.83
76337;BME280;65157;50.082;18.178;2023-04-15T12:37:08;98242.15;;;18.83;41.59
76337;BME280;65157;50.082;18.178;2023-04-15T12:39:37;98238.86;;;18.76;41.63
76337;BME280;65157;50.082;18.178;2023-04-15T12:42:05;98237.36;;;18.67;41.11
76337;BME280;65157;50.082;18.178;2023-04-15T12:44:36;98238.10;;;18.59;40.47
76337;BME280;65157;50.082;18.178;2023-04-15T12:47:03;98239.09;;;18.60;41.20
76337;BME280;65157;50.082;18.178;2023-04-15T12:49:30;98241.21;;;18.68;40.57
76337;BME280;65157;50.082;18.178;2023-04-15T12:51:58;98238.91;;;18.72;40.82
76337;BME280;65157;50.082;18.178;2023-04-15T12:54:26;98233.58;;;18.79;40.63
76337;BME280;65157;50.082;18.178;2023-04-15T12:56:53;98236.92;;;18.97;40.79
76337;BME280;65157;50.082;18.178;2023-04-15T12:59:21;98238.09;;;19.11;40.57
76337;BME280;65157;50.082;18.178;2023-04-15T13:01:49;98242.47;;;19.20;41.10
76337;BME280;65157;50.082;18.178;2023-04-15T13:04:16;98241.29;;;19.15;39.13
76337;BME280;65157;50.082;18.178;2023-04-15T13:06:43;98244.61;;;19.01;38.93
76337;BME280;65157;50.082;18.178;2023-04-15T13:09:09;98243.25;;;18.98;40.40
76337;BME280;65157;50.082;18.178;2023-04-15T13:11:39;98242.23;;;19.01;40.15
76337;BME280;65157;50.082;18.178;2023-04-15T13:14:06;98243.71;;;19.12;39.86
76337;BME280;65157;50.082;18.178;2023-04-15T13:16:33;98242.27;;;19.14;40.69
76337;BME280;65157;50.082;18.178;2023-04-15T13:19:01;98242.46;;;19.22;40.20
76337;BME280;65157;50.082;18.178;2023-04-15T13:21:30;98242.84;;;19.29;39.96